Terminal Aerodrome Forecast
Issued by NWS

Home | Current Version | Previous Version | Text Only | Print | Product List | Glossary On
Versions: 1 2 3 4 5 6 7 8 9 10 11 12 13 14 15 16 17 18 19
000
FTUS43 KGRB 162300
TAFATW
TAF
KATW 162326Z 1700/1724 14014G24KT P6SM BKN100
     FM170400 11013G20KT P6SM SCT045 OVC070 WS016/17040KT
     FM170800 10012G18KT P6SM -RASN SCT018 OVC035 WS015/17045KT
      TEMPO 1710/1714 3SM -SN BR BKN012
     FM171400 17013G20KT 4SM -RA BR SCT007 BKN013
      TEMPO 1714/1718 2SM -RASN
     FM172000 23010G18KT P6SM BKN022
     FM172300 28009KT P6SM BKN035=

USA.gov is the U.S. government's official web portal to all federal, state and local government web resources and services.